Time;durP1;ratioP1;P1;durP2;ratioP2;P2;SDS_P1;SDS_P2;PMS_P1;PMS_P2;Temp;Humidity;BMP_temperature;BMP_pressure;BME280_temperature;BME280_humidity;BME280_pressure;Samples;Min_cycle;Max_cycle;Signal;HPM_P1;HPM_P2
2022/03/30 00:02:20;;;;;;;6.07;5.30;;;11.90;99.90;;;;;;5120546;28;20384;-81
2022/03/30 00:05:05;;;;;;;8.03;4.90;;;11.80;99.90;;;;;;5119986;28;20384;-81
2022/03/30 00:07:52;;;;;;;7.77;6.03;;;11.80;99.90;;;;;;5114473;28;20391;-81
2022/03/30 00:10:36;;;;;;;7.80;4.93;;;11.80;99.90;;;;;;5112913;28;20552;-81
2022/03/30 00:13:21;;;;;;;5.47;4.70;;;11.80;99.90;;;;;;5112315;28;20379;-81
2022/03/30 00:16:07;;;;;;;5.13;4.63;;;11.70;99.90;;;;;;5112055;28;20771;-81
2022/03/30 00:18:52;;;;;;;6.97;6.10;;;11.80;99.90;;;;;;5113034;28;20399;-80
2022/03/30 00:21:37;;;;;;;7.70;6.37;;;11.80;99.90;;;;;;5112871;28;20395;-81
2022/03/30 00:24:21;;;;;;;8.97;4.80;;;11.80;99.90;;;;;;5097505;28;20445;-80
2022/03/30 00:27:06;;;;;;;6.53;4.90;;;11.80;99.90;;;;;;5112055;28;20391;-81
2022/03/30 00:29:51;;;;;;;5.73;5.13;;;11.80;99.90;;;;;;5112760;28;20383;-82
2022/03/30 00:32:36;;;;;;;8.40;5.43;;;11.80;99.90;;;;;;5112545;28;20414;-80
2022/03/30 00:35:21;;;;;;;6.13;5.47;;;11.80;99.90;;;;;;5112306;28;21253;-81
2022/03/30 00:38:05;;;;;;;14.13;6.70;;;11.90;99.90;;;;;;5111301;28;20384;-81
2022/03/30 00:40:50;;;;;;;8.33;5.70;;;12.00;99.90;;;;;;5111146;28;20380;-81
2022/03/30 00:43:35;;;;;;;9.73;6.30;;;12.20;99.90;;;;;;5111655;28;21017;-82
2022/03/30 00:46:19;;;;;;;17.23;8.50;;;12.30;99.90;;;;;;5097936;28;20396;-80
2022/03/30 00:49:05;;;;;;;10.53;7.50;;;12.30;99.90;;;;;;5111255;28;20403;-81
2022/03/30 00:51:49;;;;;;;9.23;7.83;;;12.30;99.90;;;;;;5110592;28;20459;-81
2022/03/30 00:54:35;;;;;;;9.07;7.80;;;12.30;99.90;;;;;;5095750;28;20388;-81
2022/03/30 00:57:23;;;;;;;20.53;7.60;;;12.30;99.90;;;;;;5112042;28;20396;-81
2022/03/30 01:00:14;;;;;;;15.20;8.33;;;12.20;99.90;;;;;;5112266;28;20432;-81
2022/03/30 01:02:59;;;;;;;9.90;6.93;;;12.30;99.90;;;;;;5112037;28;20392;-81
2022/03/30 01:05:43;;;;;;;12.23;8.80;;;12.20;99.90;;;;;;5112296;28;20388;-80
2022/03/30 01:08:28;;;;;;;15.27;9.40;;;12.20;99.90;;;;;;5112250;28;20411;-80
2022/03/30 01:11:16;;;;;;;12.33;7.80;;;12.10;99.90;;;;;;5111822;28;20535;-79
2022/03/30 01:14:01;;;;;;;19.07;9.97;;;12.10;99.90;;;;;;5111850;28;20442;-80
2022/03/30 01:16:46;;;;;;;14.60;9.13;;;12.00;99.90;;;;;;5111719;28;20431;-80
2022/03/30 01:19:34;;;;;;;12.73;9.50;;;12.00;99.90;;;;;;5110963;28;20511;-80
2022/03/30 01:22:18;;;;;;;17.60;8.23;;;12.00;99.90;;;;;;5096372;28;20415;-80
2022/03/30 01:25:04;;;;;;;11.13;8.20;;;12.00;99.90;;;;;;5110802;28;20399;-81
2022/03/30 01:27:48;;;;;;;19.60;11.00;;;12.00;99.90;;;;;;5110265;28;20404;-80
2022/03/30 01:33:34;;;;;;;15.70;10.87;;;11.90;99.90;;;;;;5098041;28;20436;-80
2022/03/30 01:36:18;;;;;;;14.33;11.03;;;11.80;99.90;;;;;;5111359;28;20387;-81
2022/03/30 01:39:04;;;;;;;14.17;8.93;;;11.80;99.90;;;;;;5110803;28;20473;-80
2022/03/30 01:41:49;;;;;;;18.10;9.97;;;11.70;99.90;;;;;;5110962;28;20418;-80
2022/03/30 01:44:36;;;;;;;14.03;8.50;;;11.70;99.90;;;;;;5111921;28;20407;-80
2022/03/30 01:47:21;;;;;;;21.20;11.40;;;11.60;99.90;;;;;;5110206;28;20427;-81
2022/03/30 01:50:09;;;;;;;15.27;9.83;;;11.60;99.90;;;;;;5111707;28;20176;-81
2022/03/30 01:52:53;;;;;;;12.20;8.60;;;11.60;99.90;;;;;;5110546;28;20403;-80
2022/03/30 01:55:39;;;;;;;14.53;9.80;;;11.60;99.90;;;;;;5110352;28;20489;-80
2022/03/30 01:58:23;;;;;;;17.20;9.83;;;11.50;99.90;;;;;;5110739;28;20430;-80
2022/03/30 02:01:09;;;;;;;18.10;10.17;;;11.40;99.90;;;;;;5111094;28;20452;-79
2022/03/30 02:03:56;;;;;;;14.50;9.97;;;11.30;99.90;;;;;;5110538;28;20805;-80
2022/03/30 02:06:41;;;;;;;14.53;8.90;;;11.30;99.90;;;;;;5110541;28;20456;-80
2022/03/30 02:09:26;;;;;;;14.80;10.53;;;11.30;99.90;;;;;;5110600;28;20448;-80
2022/03/30 02:12:11;;;;;;;17.00;10.73;;;11.30;99.90;;;;;;5110858;28;20459;-80
2022/03/30 02:14:57;;;;;;;11.97;8.27;;;11.20;99.90;;;;;;5110951;28;20380;-80
2022/03/30 02:17:41;;;;;;;19.23;9.97;;;11.10;99.90;;;;;;5119059;28;20419;-80
2022/03/30 02:20:26;;;;;;;16.73;9.67;;;11.10;99.90;;;;;;5114131;28;20478;-80
2022/03/30 02:23:12;;;;;;;16.73;10.33;;;11.00;99.90;;;;;;5096195;28;20413;-80
2022/03/30 02:25:56;;;;;;;15.93;9.77;;;11.00;99.90;;;;;;5110355;28;20392;-81
2022/03/30 02:28:42;;;;;;;17.97;10.30;;;10.90;99.90;;;;;;5109650;28;20430;-80
2022/03/30 02:31:26;;;;;;;12.97;8.93;;;10.90;99.90;;;;;;5095856;28;20463;-80
2022/03/30 02:34:11;;;;;;;13.80;8.90;;;10.90;99.90;;;;;;5110337;28;20412;-82
2022/03/30 02:36:56;;;;;;;14.73;9.53;;;10.90;99.90;;;;;;5110865;28;20380;-81
2022/03/30 02:39:41;;;;;;;17.93;10.03;;;10.90;99.90;;;;;;5095133;28;20395;-80
2022/03/30 02:42:25;;;;;;;15.67;10.27;;;10.80;99.90;;;;;;5110238;28;20388;-81
2022/03/30 02:45:10;;;;;;;20.33;11.00;;;10.80;99.90;;;;;;5116972;28;20530;-81
2022/03/30 02:51:00;;;;;;;20.17;10.90;;;10.80;99.90;;;;;;5117974;28;20537;-80
2022/03/30 02:53:45;;;;;;;21.53;12.00;;;10.80;99.90;;;;;;5117324;28;20399;-79
2022/03/30 02:56:34;;;;;;;28.47;13.07;;;10.80;99.90;;;;;;5102692;28;20486;-79
2022/03/30 02:59:18;;;;;;;23.60;12.30;;;10.80;99.90;;;;;;5117478;28;20443;-79
2022/03/30 03:02:03;;;;;;;19.73;12.03;;;10.80;99.90;;;;;;5088130;28;20431;-78
2022/03/30 03:04:47;;;;;;;22.20;12.17;;;10.80;99.90;;;;;;5101468;28;20396;-81
2022/03/30 03:07:32;;;;;;;22.10;13.07;;;10.80;99.90;;;;;;5109760;28;20396;-81
2022/03/30 03:10:18;;;;;;;21.27;11.70;;;10.70;99.90;;;;;;5088195;28;20485;-81
2022/03/30 03:13:03;;;;;;;23.53;14.07;;;10.70;99.90;;;;;;5088351;28;20939;-81
2022/03/30 03:15:48;;;;;;;29.50;15.57;;;10.70;99.90;;;;;;5088384;28;20489;-81
2022/03/30 03:18:35;;;;;;;23.13;11.90;;;10.70;99.90;;;;;;5089121;28;20419;-82
2022/03/30 03:21:19;;;;;;;26.93;13.67;;;10.70;99.90;;;;;;5089129;28;20397;-80
2022/03/30 03:24:04;;;;;;;27.83;14.80;;;10.60;99.90;;;;;;5089176;28;20409;-81
2022/03/30 03:26:51;;;;;;;27.33;15.20;;;10.60;99.90;;;;;;5088045;28;20392;-81
2022/03/30 03:29:35;;;;;;;29.33;15.40;;;10.50;99.90;;;;;;5089463;28;20401;-81
2022/03/30 03:32:20;;;;;;;29.47;16.30;;;10.50;99.90;;;;;;5087317;28;21079;-81
2022/03/30 03:35:07;;;;;;;24.47;16.83;;;10.50;99.90;;;;;;5074931;28;20417;-81
2022/03/30 03:37:52;;;;;;;29.43;15.73;;;10.50;99.90;;;;;;5068881;28;20916;-82
2022/03/30 03:40:37;;;;;;;31.40;17.50;;;10.60;99.90;;;;;;5068500;28;20401;-81
2022/03/30 03:43:22;;;;;;;38.70;15.93;;;10.60;99.90;;;;;;5068138;28;20469;-81
2022/03/30 03:46:07;;;;;;;28.20;14.90;;;10.60;99.90;;;;;;5069545;28;20503;-81
2022/03/30 03:48:51;;;;;;;29.73;15.90;;;10.60;99.90;;;;;;5068402;28;20378;-81
2022/03/30 03:51:36;;;;;;;31.53;16.90;;;10.50;99.90;;;;;;5068500;28;20456;-81
2022/03/30 03:54:21;;;;;;;34.33;16.47;;;10.50;99.90;;;;;;5068535;28;20398;-81
2022/03/30 03:57:07;;;;;;;30.47;16.97;;;10.50;99.90;;;;;;5068665;28;20528;-81
2022/03/30 03:59:53;;;;;;;28.77;15.17;;;10.60;99.90;;;;;;5068493;28;20386;-81
2022/03/30 04:02:38;;;;;;;30.40;15.90;;;10.60;99.90;;;;;;5052882;28;20426;-81
2022/03/30 04:05:22;;;;;;;32.73;15.33;;;10.60;99.90;;;;;;5068852;28;20393;-81
2022/03/30 04:08:08;;;;;;;31.00;15.80;;;10.60;99.90;;;;;;5069657;28;20397;-81
2022/03/30 04:10:52;;;;;;;27.03;16.07;;;10.50;99.90;;;;;;5068267;28;20453;-81
2022/03/30 04:13:37;;;;;;;32.17;15.70;;;10.50;99.90;;;;;;5067961;28;20902;-81
2022/03/30 04:16:22;;;;;;;29.73;17.23;;;10.50;99.90;;;;;;5067479;28;20398;-81
2022/03/30 04:19:07;;;;;;;28.20;16.93;;;10.50;99.90;;;;;;5068253;28;20437;-81
2022/03/30 04:21:52;;;;;;;36.20;17.60;;;10.50;99.90;;;;;;5068139;28;20393;-81
2022/03/30 04:24:36;;;;;;;30.37;15.70;;;10.50;99.90;;;;;;5068554;28;20424;-81
2022/03/30 04:27:21;;;;;;;34.57;19.23;;;10.40;99.90;;;;;;5069438;28;20397;-81
2022/03/30 04:30:06;;;;;;;28.33;17.07;;;10.40;99.90;;;;;;5075611;28;20390;-80
2022/03/30 04:32:51;;;;;;;29.23;17.30;;;10.40;99.90;;;;;;5077169;28;20414;-80
2022/03/30 04:35:36;;;;;;;44.40;19.97;;;10.50;99.90;;;;;;5074841;28;20408;-81
2022/03/30 04:38:21;;;;;;;35.10;20.23;;;10.50;99.90;;;;;;5076366;28;20409;-81
2022/03/30 04:41:06;;;;;;;35.33;16.50;;;10.50;99.90;;;;;;5077577;28;20374;-81
2022/03/30 04:43:50;;;;;;;27.03;15.17;;;10.50;99.90;;;;;;5075506;28;20394;-81
2022/03/30 04:46:34;;;;;;;41.83;18.17;;;10.40;99.90;;;;;;5076135;28;20397;-81
2022/03/30 04:49:19;;;;;;;30.93;16.70;;;10.40;99.90;;;;;;5076668;28;20386;-81
2022/03/30 04:52:04;;;;;;;43.07;21.73;;;10.30;99.90;;;;;;5075612;28;20441;-80
2022/03/30 04:54:49;;;;;;;34.03;20.27;;;10.30;99.90;;;;;;5079656;28;20436;-81
2022/03/30 04:57:34;;;;;;;39.05;21.40;;;10.30;99.90;;;;;;5094377;28;20421;-81
2022/03/30 05:00:18;;;;;;;37.17;20.83;;;10.20;99.90;;;;;;5083571;28;20252;-81
2022/03/30 05:03:03;;;;;;;48.80;20.20;;;10.10;99.90;;;;;;5090079;28;20427;-79
2022/03/30 05:05:48;;;;;;;41.57;21.23;;;10.20;99.90;;;;;;5094191;28;20392;-81
2022/03/30 05:08:33;;;;;;;31.03;18.90;;;10.20;99.90;;;;;;5059886;28;20398;-80
2022/03/30 05:11:17;;;;;;;48.63;23.70;;;10.20;99.90;;;;;;5096884;28;20463;-81
2022/03/30 05:14:02;;;;;;;42.73;20.20;;;10.20;99.90;;;;;;5098212;28;20388;-81
2022/03/30 05:16:47;;;;;;;41.57;21.57;;;10.20;99.90;;;;;;5096578;28;20405;-81
2022/03/30 05:19:31;;;;;;;39.40;20.80;;;10.20;99.90;;;;;;5076909;28;20477;-79
2022/03/30 05:22:16;;;;;;;37.73;20.43;;;10.20;99.90;;;;;;5093964;28;20408;-79
2022/03/30 05:25:01;;;;;;;41.07;20.73;;;10.30;99.90;;;;;;5090291;28;20424;-81
2022/03/30 05:27:46;;;;;;;42.40;19.60;;;10.30;99.90;;;;;;5094435;28;20412;-82
2022/03/30 05:30:31;;;;;;;42.40;19.43;;;10.20;99.90;;;;;;5131276;28;20394;-81
2022/03/30 05:33:16;;;;;;;39.83;21.17;;;10.20;99.90;;;;;;5107757;28;20469;-80
2022/03/30 05:36:00;;;;;;;49.37;23.80;;;10.10;99.90;;;;;;5109703;28;20396;-80
2022/03/30 05:38:47;;;;;;;44.17;22.37;;;10.10;99.90;;;;;;5077079;28;20412;-81
2022/03/30 05:41:33;;;;;;;43.90;24.20;;;10.10;99.90;;;;;;5088602;28;20442;-81
2022/03/30 05:44:19;;;;;;;47.40;21.13;;;10.10;99.90;;;;;;5085364;28;20454;-81
2022/03/30 05:47:04;;;;;;;48.60;24.10;;;10.10;99.90;;;;;;5112272;28;20453;-81
2022/03/30 05:49:49;;;;;;;41.90;21.27;;;10.10;99.90;;;;;;5091191;28;20475;-82
2022/03/30 05:52:34;;;;;;;40.73;22.50;;;10.10;99.90;;;;;;5104962;28;20947;-82
2022/03/30 05:55:18;;;;;;;47.17;23.30;;;10.10;99.90;;;;;;5113428;28;20531;-81
2022/03/30 05:58:03;;;;;;;50.17;22.60;;;10.10;99.90;;;;;;5107464;28;20500;-80
2022/03/30 06:00:50;;;;;;;34.83;21.47;;;10.10;99.90;;;;;;5100978;28;20449;-81
2022/03/30 06:03:37;;;;;;;44.37;22.43;;;10.10;99.90;;;;;;5090452;28;20891;-81
2022/03/30 06:06:22;;;;;;;41.20;22.80;;;10.10;99.90;;;;;;5102636;28;20789;-81
2022/03/30 06:09:07;;;;;;;50.17;24.77;;;10.10;99.90;;;;;;5108051;28;20466;-80
2022/03/30 06:11:52;;;;;;;38.23;21.80;;;10.20;99.90;;;;;;5104781;28;20537;-81
2022/03/30 06:14:37;;;;;;;45.50;21.83;;;10.30;99.90;;;;;;5101722;28;20506;-81
2022/03/30 06:17:22;;;;;;;42.00;22.60;;;10.30;99.90;;;;;;5101482;28;20428;-81
2022/03/30 06:20:07;;;;;;;40.27;21.73;;;10.30;99.90;;;;;;5112242;28;20628;-81
2022/03/30 06:22:53;;;;;;;46.07;23.37;;;10.30;99.90;;;;;;5099276;28;20436;-81
2022/03/30 06:25:39;;;;;;;43.50;23.10;;;10.30;99.90;;;;;;5088451;28;20413;-82
2022/03/30 06:28:26;;;;;;;54.40;25.80;;;10.40;99.90;;;;;;5098047;28;20447;-82
2022/03/30 06:31:13;;;;;;;53.97;24.90;;;10.40;99.90;;;;;;5107042;28;20470;-81
2022/03/30 06:33:57;;;;;;;46.10;23.87;;;10.30;99.90;;;;;;5100079;28;20489;-81
2022/03/30 06:36:43;;;;;;;39.23;23.17;;;10.40;99.90;;;;;;5102000;28;20411;-81
2022/03/30 06:39:27;;;;;;;47.47;23.67;;;10.30;99.90;;;;;;5100500;28;20464;-81
2022/03/30 06:42:13;;;;;;;53.10;25.93;;;10.30;99.90;;;;;;5073701;28;20490;-81
2022/03/30 06:44:58;;;;;;;42.80;23.10;;;10.30;99.90;;;;;;5069990;28;20977;-80
2022/03/30 06:47:43;;;;;;;50.27;23.43;;;10.30;99.90;;;;;;5094097;28;20436;-80
2022/03/30 06:50:27;;;;;;;46.70;23.13;;;10.30;99.90;;;;;;5094213;28;20458;-81
2022/03/30 06:53:13;;;;;;;47.10;23.40;;;10.30;99.90;;;;;;5102365;28;20500;-81
2022/03/30 06:55:57;;;;;;;56.83;24.13;;;10.40;99.90;;;;;;5098289;28;20474;-79
2022/03/30 06:58:41;;;;;;;45.83;22.37;;;10.30;99.90;;;;;;5096402;28;20754;-82
2022/03/30 07:01:26;;;;;;;53.77;23.73;;;10.30;99.90;;;;;;5080812;28;20426;-82
2022/03/30 07:04:11;;;;;;;41.53;23.97;;;10.30;99.90;;;;;;5080893;28;21055;-79
2022/03/30 07:13:00;;;;;;;36.43;21.97;;;10.30;99.90;;;;;;5100664;28;20443;-82
2022/03/30 07:15:45;;;;;;;51.53;22.87;;;10.30;99.90;;;;;;5097507;28;20496;-81
2022/03/30 07:18:31;;;;;;;57.27;24.80;;;10.30;99.90;;;;;;5098961;28;20454;-82
2022/03/30 07:21:15;;;;;;;49.27;23.47;;;10.20;99.90;;;;;;5091220;28;20541;-81
2022/03/30 07:24:00;;;;;;;43.27;21.73;;;10.30;99.90;;;;;;5095294;28;20818;-81
2022/03/30 07:26:45;;;;;;;51.60;23.37;;;10.30;99.90;;;;;;5101872;28;20442;-79
2022/03/30 07:29:30;;;;;;;56.13;28.58;;;10.30;99.90;;;;;;5074320;28;20435;-80
2022/03/30 07:32:15;;;;;;;45.40;22.93;;;10.40;99.90;;;;;;5094722;28;20213;-80
2022/03/30 07:35:00;;;;;;;44.63;23.10;;;10.40;99.90;;;;;;5084017;28;20451;-81
2022/03/30 07:37:46;;;;;;;43.23;22.10;;;10.40;99.90;;;;;;5083764;28;20424;-80
2022/03/30 07:40:31;;;;;;;42.47;21.50;;;10.40;99.90;;;;;;5079209;28;21157;-81
2022/03/30 07:43:17;;;;;;;38.70;20.73;;;10.40;99.90;;;;;;5086836;28;20420;-81
2022/03/30 07:46:02;;;;;;;45.60;21.50;;;10.40;99.90;;;;;;5090812;28;20478;-81
2022/03/30 07:48:46;;;;;;;44.97;24.10;;;10.40;99.90;;;;;;5093617;28;20444;-82
2022/03/30 07:51:31;;;;;;;42.70;22.63;;;10.50;99.90;;;;;;5099760;28;20490;-81
2022/03/30 07:54:16;;;;;;;40.17;22.13;;;10.40;99.90;;;;;;5102368;28;20442;-80
2022/03/30 07:57:01;;;;;;;44.43;22.50;;;10.20;99.90;;;;;;5097281;28;20407;-82
2022/03/30 07:59:45;;;;;;;50.70;21.50;;;10.20;99.90;;;;;;5092758;28;20475;-79
2022/03/30 08:02:30;;;;;;;50.30;23.43;;;10.30;99.90;;;;;;5073101;28;20423;-80
2022/03/30 08:05:35;;;;;;;48.83;23.17;;;10.40;99.90;;;;;;5095078;28;20546;-81
2022/03/30 08:08:20;;;;;;;64.53;24.33;;;10.30;99.90;;;;;;5065340;28;20438;-81
2022/03/30 08:11:05;;;;;;;52.10;23.47;;;10.30;99.90;;;;;;5044389;28;20482;-81
2022/03/30 08:13:50;;;;;;;50.90;22.67;;;10.30;99.90;;;;;;5050688;28;20436;-80
2022/03/30 08:16:35;;;;;;;42.80;25.63;;;10.30;99.90;;;;;;5039905;28;20430;-80
2022/03/30 08:19:19;;;;;;;49.20;26.13;;;10.30;99.90;;;;;;5038420;28;20440;-83
2022/03/30 08:25:07;;;;;;;45.53;22.80;;;10.20;99.90;;;;;;5056988;28;20454;-80
2022/03/30 08:27:53;;;;;;;45.33;25.13;;;10.40;99.90;;;;;;5054602;28;20426;-81
2022/03/30 08:30:38;;;;;;;60.27;27.87;;;10.30;99.90;;;;;;5052804;28;20493;-80
2022/03/30 08:33:26;;;;;;;53.83;26.53;;;10.30;99.90;;;;;;5072259;28;20459;-82
2022/03/30 08:36:11;;;;;;;59.30;26.80;;;10.30;99.90;;;;;;5061317;28;20429;-79
2022/03/30 08:38:57;;;;;;;55.17;27.57;;;10.30;99.90;;;;;;5076688;28;20439;-81
2022/03/30 08:41:43;;;;;;;49.20;26.80;;;10.30;99.90;;;;;;5089945;28;20549;-81
2022/03/30 08:44:28;;;;;;;48.83;26.00;;;10.00;99.90;;;;;;5102186;28;20443;-79
2022/03/30 08:47:13;;;;;;;65.47;27.37;;;10.10;99.90;;;;;;5074722;28;21073;-81
2022/03/30 08:49:58;;;;;;;52.80;24.77;;;10.30;99.90;;;;;;5096802;28;20496;-81
2022/03/30 08:52:45;;;;;;;61.07;26.30;;;10.40;99.90;;;;;;5085804;28;20455;-81
2022/03/30 08:55:30;;;;;;;46.27;23.87;;;10.60;99.90;;;;;;5098520;28;20998;-80
2022/03/30 08:58:15;;;;;;;50.20;26.90;;;10.80;99.90;;;;;;5099161;28;21122;-82
2022/03/30 09:01:09;;;;;;;57.67;26.47;;;10.70;99.90;;;;;;5083472;28;20484;-81
2022/03/30 09:03:56;;;;;;;57.03;31.40;;;10.70;99.90;;;;;;5091949;28;20442;-79
2022/03/30 09:06:48;;;;;;;59.60;29.20;;;10.70;99.90;;;;;;5094458;28;20316;-81
2022/03/30 09:09:35;;;;;;;43.47;22.70;;;11.00;99.90;;;;;;5080812;28;20514;-81
2022/03/30 09:12:26;;;;;;;50.03;27.90;;;11.10;99.90;;;;;;5101391;28;20455;-81
2022/03/30 09:15:12;;;;;;;45.93;24.33;;;11.10;99.90;;;;;;5097328;28;20462;-80
2022/03/30 09:18:00;;;;;;;49.53;25.20;;;11.10;99.90;;;;;;5086385;28;20420;-81
2022/03/30 09:20:47;;;;;;;71.80;33.05;;;11.10;99.90;;;;;;5098939;28;20462;-81
2022/03/30 09:23:32;;;;;;;49.20;27.50;;;11.10;99.90;;;;;;5082943;28;20273;-81
2022/03/30 09:26:17;;;;;;;49.73;26.60;;;11.00;99.90;;;;;;5101530;28;20441;-81
2022/03/30 09:29:04;;;;;;;50.00;24.60;;;10.90;99.90;;;;;;5093506;28;20428;-80
2022/03/30 09:31:50;;;;;;;53.30;27.03;;;10.80;99.90;;;;;;5086722;28;20450;-81
2022/03/30 09:34:45;;;;;;;51.37;25.50;;;10.70;99.90;;;;;;5088103;28;20535;-81
2022/03/30 09:37:30;;;;;;;53.63;24.57;;;10.70;99.90;;;;;;5087747;28;20936;-81
2022/03/30 09:40:15;;;;;;;50.97;26.80;;;10.70;99.90;;;;;;5061047;28;20457;-80
2022/03/30 09:43:20;;;;;;;55.00;25.50;;;10.70;99.90;;;;;;5053253;28;20859;-82
2022/03/30 09:46:12;;;;;;;47.30;26.67;;;10.70;99.90;;;;;;5066151;28;20547;-82
2022/03/30 09:48:57;;;;;;;52.30;25.57;;;10.80;99.90;;;;;;5064830;28;20473;-81
2022/03/30 09:51:54;;;;;;;54.50;26.40;;;10.90;99.90;;;;;;5063761;28;20561;-80
2022/03/30 09:54:41;;;;;;;53.53;24.70;;;10.80;99.90;;;;;;5061848;28;20438;-81
2022/03/30 09:57:28;;;;;;;46.03;23.97;;;10.90;99.90;;;;;;5066883;28;20429;-79
2022/03/30 10:00:16;;;;;;;52.33;29.92;;;10.90;99.90;;;;;;5050773;28;20532;-81
2022/03/30 10:03:01;;;;;;;48.40;25.07;;;10.90;99.90;;;;;;5066684;28;20269;-81
2022/03/30 10:05:45;;;;;;;54.50;24.93;;;10.90;99.90;;;;;;5051023;28;20516;-82
2022/03/30 10:08:32;;;;;;;50.03;26.57;;;11.00;99.90;;;;;;5055778;28;20433;-82
2022/03/30 10:11:17;;;;;;;42.80;23.03;;;10.90;99.90;;;;;;5089491;28;20494;-80
2022/03/30 10:14:05;;;;;;;47.00;24.63;;;10.90;99.90;;;;;;5078688;28;20440;-80
2022/03/30 10:17:07;;;;;;;41.80;25.00;;;10.90;99.90;;;;;;5057810;28;20499;-82
2022/03/30 10:19:55;;;;;;;54.03;29.80;;;10.90;99.90;;;;;;5053613;28;20517;-81
2022/03/30 10:23:08;;;;;;;43.50;23.47;;;10.80;99.90;;;;;;5061544;28;20489;-81
2022/03/30 10:26:29;;;;;;;44.17;24.60;;;10.80;99.90;;;;;;5034921;28;21024;-82
2022/03/30 10:29:16;;;;;;;55.50;25.63;;;10.80;99.90;;;;;;5031972;28;20491;-82
2022/03/30 10:32:17;;;;;;;49.07;27.10;;;10.90;99.90;;;;;;5033535;28;20513;-81
2022/03/30 10:35:06;;;;;;;46.87;24.20;;;10.70;99.90;;;;;;5035061;28;20421;-80
2022/03/30 10:38:02;;;;;;;47.70;24.30;;;10.90;99.90;;;;;;5033639;28;20578;-82
2022/03/30 10:40:47;;;;;;;48.27;26.97;;;10.80;99.90;;;;;;4982093;28;20452;-84
2022/03/30 10:43:32;;;;;;;45.00;26.07;;;10.80;99.90;;;;;;5014718;28;20447;-81
2022/03/30 10:46:36;;;;;;;51.37;25.47;;;11.00;99.90;;;;;;5001268;28;20447;-80
2022/03/30 10:49:40;;;;;;;48.07;24.00;;;10.90;99.90;;;;;;5045419;28;20951;-83
2022/03/30 10:52:42;;;;;;;43.17;24.07;;;10.90;99.90;;;;;;5048585;28;20485;-82
2022/03/30 10:55:30;;;;;;;49.23;26.23;;;10.80;99.90;;;;;;5050861;28;20481;-81
2022/03/30 10:58:16;;;;;;;52.50;25.17;;;10.80;99.90;;;;;;5048941;28;20422;-83
2022/03/30 11:01:14;;;;;;;50.80;27.40;;;10.70;99.90;;;;;;5049459;28;20426;-82
2022/03/30 11:04:18;;;;;;;44.70;27.10;;;10.70;99.90;;;;;;5035130;28;20433;-80
2022/03/30 11:07:29;;;;;;;44.87;26.57;;;10.60;99.90;;;;;;5058580;28;20554;-82
2022/03/30 11:10:17;;;;;;;32.33;22.63;;;10.60;99.90;;;;;;5068358;28;20467;-82
2022/03/30 11:13:05;;;;;;;45.97;26.40;;;10.50;99.90;;;;;;5103228;28;20432;-81
2022/03/30 11:16:06;;;;;;;48.90;24.03;;;10.50;99.90;;;;;;5093380;28;20439;-82
2022/03/30 11:18:56;;;;;;;53.97;30.70;;;10.40;99.90;;;;;;5087120;28;20456;-81
2022/03/30 11:21:54;;;;;;;50.20;24.63;;;10.30;99.90;;;;;;5094485;28;20935;-82
2022/03/30 11:24:44;;;;;;;37.20;22.70;;;10.30;99.90;;;;;;5085724;28;20883;-81
2022/03/30 11:27:28;;;;;;;47.90;24.07;;;10.20;99.90;;;;;;5094228;28;20769;-81
2022/03/30 11:30:17;;;;;;;51.53;23.33;;;10.20;99.90;;;;;;5093478;28;20419;-81
2022/03/30 11:33:22;;;;;;;52.23;26.63;;;10.10;99.90;;;;;;5081944;28;20443;-82
2022/03/30 11:36:07;;;;;;;44.60;23.67;;;10.00;99.90;;;;;;5075545;28;20573;-81
2022/03/30 11:38:55;;;;;;;45.27;24.27;;;10.00;99.90;;;;;;5095949;28;20775;-82
2022/03/30 11:41:40;;;;;;;40.80;22.67;;;10.00;99.90;;;;;;5087734;28;20456;-80
2022/03/30 11:47:21;;;;;;;43.03;23.73;;;9.90;99.90;;;;;;5096428;28;20433;-80
2022/03/30 11:50:06;;;;;;;45.23;23.20;;;10.00;99.90;;;;;;5055377;28;20443;-78
2022/03/30 11:53:00;;;;;;;46.07;25.07;;;10.00;99.90;;;;;;5093417;28;21112;-80
2022/03/30 11:55:53;;;;;;;44.87;24.20;;;10.00;99.90;;;;;;5089837;28;20995;-80
2022/03/30 11:58:42;;;;;;;44.50;24.40;;;9.90;99.90;;;;;;5077536;28;20428;-80
2022/03/30 12:01:27;;;;;;;43.80;24.37;;;10.00;99.90;;;;;;5099323;28;20465;-79
2022/03/30 12:04:13;;;;;;;36.73;22.10;;;10.00;99.90;;;;;;5062622;28;20432;-80
2022/03/30 12:06:59;;;;;;;38.67;23.50;;;10.00;99.90;;;;;;5103112;28;20424;-80
2022/03/30 12:09:46;;;;;;;40.20;23.17;;;9.80;99.90;;;;;;5101109;28;20507;-80
2022/03/30 12:12:36;;;;;;;35.60;21.20;;;9.60;99.90;;;;;;5098165;28;20513;-80
2022/03/30 12:15:20;;;;;;;41.80;19.90;;;9.70;99.90;;;;;;5095376;28;20412;-80
2022/03/30 12:18:05;;;;;;;34.47;20.17;;;9.60;99.90;;;;;;5082874;28;20399;-82
2022/03/30 12:20:49;;;;;;;34.80;19.40;;;9.50;99.90;;;;;;5098865;28;20903;-82
2022/03/30 12:23:57;;;;;;;37.27;20.20;;;9.60;99.90;;;;;;5102341;28;20484;-82
2022/03/30 12:26:42;;;;;;;29.20;19.23;;;9.50;99.90;;;;;;5073040;28;21094;-81
2022/03/30 12:29:31;;;;;;;39.70;21.10;;;9.50;99.90;;;;;;5061205;28;20471;-82
2022/03/30 12:32:23;;;;;;;30.20;18.67;;;9.50;99.90;;;;;;5080426;28;20530;-81
2022/03/30 12:35:10;;;;;;;28.70;17.33;;;9.50;99.90;;;;;;5070105;28;20475;-80
2022/03/30 12:38:08;;;;;;;35.60;18.57;;;9.50;99.90;;;;;;5059985;28;20443;-82
2022/03/30 12:40:53;;;;;;;33.37;18.80;;;9.60;99.90;;;;;;5066737;28;20513;-82
2022/03/30 12:43:39;;;;;;;28.97;17.80;;;9.60;99.90;;;;;;5077660;28;20472;-82
2022/03/30 12:46:25;;;;;;;27.03;16.70;;;9.60;99.90;;;;;;5088376;28;20500;-81
2022/03/30 12:49:10;;;;;;;29.43;21.20;;;9.60;99.90;;;;;;5085484;28;20447;-82
2022/03/30 12:52:04;;;;;;;26.77;16.10;;;9.50;99.90;;;;;;5063820;28;20498;-80
2022/03/30 12:54:52;;;;;;;27.33;13.67;;;9.50;99.90;;;;;;5076892;28;20473;-81
2022/03/30 12:57:37;;;;;;;23.17;15.00;;;9.50;99.90;;;;;;5072630;28;20485;-81
2022/03/30 13:00:26;;;;;;;30.47;14.40;;;9.40;99.90;;;;;;5086887;28;20459;-82
2022/03/30 13:03:19;;;;;;;23.50;14.23;;;9.50;99.90;;;;;;5080421;28;20464;-82
2022/03/30 13:06:07;;;;;;;23.73;14.83;;;9.40;99.90;;;;;;5072492;28;20443;-82
2022/03/30 13:09:07;;;;;;;22.40;13.67;;;9.40;99.90;;;;;;5081488;28;20473;-83
2022/03/30 13:11:57;;;;;;;23.27;12.77;;;9.40;99.90;;;;;;5105282;28;20476;-81
2022/03/30 13:14:48;;;;;;;20.23;14.20;;;9.40;99.90;;;;;;5108541;28;20419;-81
2022/03/30 13:17:34;;;;;;;17.97;13.90;;;9.40;99.90;;;;;;5106357;28;20436;-83
2022/03/30 13:20:39;;;;;;;17.17;11.60;;;9.40;99.90;;;;;;5107148;28;20431;-83
2022/03/30 13:23:43;;;;;;;18.50;11.83;;;9.40;99.90;;;;;;5058068;28;20500;-82
2022/03/30 13:26:31;;;;;;;20.93;12.70;;;9.30;99.90;;;;;;5062258;28;20449;-81
2022/03/30 13:29:15;;;;;;;21.00;11.30;;;9.40;99.90;;;;;;5057983;28;20450;-81
2022/03/30 13:32:00;;;;;;;18.50;11.80;;;9.40;99.90;;;;;;5063087;28;20492;-83
2022/03/30 13:34:45;;;;;;;19.00;11.20;;;9.30;99.90;;;;;;5063984;28;20439;-83
2022/03/30 13:37:30;;;;;;;16.97;10.37;;;9.40;99.90;;;;;;5065627;28;20490;-82
2022/03/30 13:40:14;;;;;;;17.97;10.97;;;9.40;99.90;;;;;;5065343;28;20417;-82
2022/03/30 13:43:01;;;;;;;16.00;10.80;;;9.40;99.90;;;;;;5067809;28;20441;-80
2022/03/30 13:45:45;;;;;;;14.50;10.20;;;9.40;99.90;;;;;;5050092;28;20777;-81
2022/03/30 13:48:30;;;;;;;14.23;8.90;;;9.40;99.90;;;;;;5002887;28;20440;-81
2022/03/30 13:51:15;;;;;;;13.63;9.70;;;9.40;99.90;;;;;;4993561;28;20448;-81
2022/03/30 13:54:03;;;;;;;17.23;10.57;;;9.40;99.90;;;;;;5021977;28;20450;-80
2022/03/30 13:56:47;;;;;;;15.50;10.33;;;9.30;99.90;;;;;;5032297;28;20528;-80
2022/03/30 13:59:32;;;;;;;14.37;8.93;;;9.30;99.90;;;;;;5040093;28;20958;-79
2022/03/30 14:02:16;;;;;;;15.27;10.30;;;9.30;99.90;;;;;;5043645;28;20443;-81
2022/03/30 14:05:00;;;;;;;15.07;9.30;;;9.20;99.90;;;;;;5044972;28;20430;-80
2022/03/30 14:07:45;;;;;;;12.27;9.17;;;9.30;99.90;;;;;;5046698;28;20442;-81
2022/03/30 14:10:30;;;;;;;14.20;8.77;;;9.20;99.90;;;;;;5043689;28;20608;-81
2022/03/30 14:13:15;;;;;;;13.00;9.80;;;9.20;99.90;;;;;;5037160;28;20452;-81
2022/03/30 14:16:01;;;;;;;14.60;9.33;;;9.20;99.90;;;;;;5039992;28;20451;-81
2022/03/30 14:18:45;;;;;;;18.20;8.50;;;9.20;99.90;;;;;;5070945;28;20540;-80
2022/03/30 14:21:30;;;;;;;16.33;9.10;;;9.20;99.90;;;;;;5098855;28;20440;-83
2022/03/30 14:24:15;;;;;;;10.87;7.73;;;9.30;99.90;;;;;;5094488;28;20443;-84
2022/03/30 14:26:59;;;;;;;12.87;9.17;;;9.40;99.90;;;;;;5099188;28;20446;-84
2022/03/30 14:29:44;;;;;;;15.37;10.90;;;9.40;99.90;;;;;;5097407;28;20446;-84